sensor_id;sensor_type;location;lat;lon;timestamp;pressure;altitude;pressure_sealevel;temperature;humidity
44751;BME280;30477;48.224;11.470;2023-01-30T00:00:45;96616.53;;;-1.99;70.38
44751;BME280;30477;48.224;11.470;2023-01-30T00:03:13;96615.00;;;-2.05;70.42
44751;BME280;30477;48.224;11.470;2023-01-30T00:05:38;96615.81;;;-2.04;70.46
44751;BME280;30477;48.224;11.470;2023-01-30T00:08:04;96609.38;;;-2.14;70.43
44751;BME280;30477;48.224;11.470;2023-01-30T00:10:29;96612.00;;;-2.16;70.42
44751;BME280;30477;48.224;11.470;2023-01-30T00:12:54;96603.31;;;-2.09;70.71
44751;BME280;30477;48.224;11.470;2023-01-30T00:15:20;96608.69;;;-2.18;70.61
44751;BME280;30477;48.224;11.470;2023-01-30T00:17:45;96604.53;;;-2.20;70.84
44751;BME280;30477;48.224;11.470;2023-01-30T00:20:10;96600.72;;;-2.07;71.05
44751;BME280;30477;48.224;11.470;2023-01-30T00:22:36;96594.72;;;-2.05;70.91
44751;BME280;30477;48.224;11.470;2023-01-30T00:25:01;96587.69;;;-1.96;70.84
44751;BME280;30477;48.224;11.470;2023-01-30T00:27:27;96593.75;;;-2.00;70.50
44751;BME280;30477;48.224;11.470;2023-01-30T00:29:52;96591.13;;;-2.24;70.49
44751;BME280;30477;48.224;11.470;2023-01-30T00:32:17;96582.88;;;-2.31;70.61
44751;BME280;30477;48.224;11.470;2023-01-30T00:34:42;96584.56;;;-2.31;70.79
44751;BME280;30477;48.224;11.470;2023-01-30T00:37:08;96573.41;;;-2.26;70.69
44751;BME280;30477;48.224;11.470;2023-01-30T00:39:33;96568.09;;;-2.18;71.14
44751;BME280;30477;48.224;11.470;2023-01-30T00:41:58;96564.69;;;-2.17;70.93
44751;BME280;30477;48.224;11.470;2023-01-30T00:44:42;96564.88;;;-2.23;70.62
44751;BME280;30477;48.224;11.470;2023-01-30T00:47:26;96559.91;;;-2.26;70.51
44751;BME280;30477;48.224;11.470;2023-01-30T00:49:52;96556.28;;;-2.19;70.84
44751;BME280;30477;48.224;11.470;2023-01-30T00:52:17;96554.03;;;-2.27;70.74
44751;BME280;30477;48.224;11.470;2023-01-30T00:54:43;96548.09;;;-2.27;70.58
44751;BME280;30477;48.224;11.470;2023-01-30T00:57:08;96544.91;;;-2.32;70.98
44751;BME280;30477;48.224;11.470;2023-01-30T00:59:33;96537.09;;;-2.26;71.13
44751;BME280;30477;48.224;11.470;2023-01-30T01:01:59;96533.78;;;-2.28;70.93
44751;BME280;30477;48.224;11.470;2023-01-30T01:04:24;96537.97;;;-2.27;70.80
44751;BME280;30477;48.224;11.470;2023-01-30T01:06:49;96542.94;;;-2.24;70.76
44751;BME280;30477;48.224;11.470;2023-01-30T01:09:15;96543.03;;;-2.27;70.99
44751;BME280;30477;48.224;11.470;2023-01-30T01:11:40;96545.56;;;-2.27;70.69
44751;BME280;30477;48.224;11.470;2023-01-30T01:14:06;96541.28;;;-2.25;70.57
44751;BME280;30477;48.224;11.470;2023-01-30T01:16:32;96533.94;;;-2.33;70.63
44751;BME280;30477;48.224;11.470;2023-01-30T01:18:58;96541.78;;;-2.40;70.71
44751;BME280;30477;48.224;11.470;2023-01-30T01:21:23;96543.84;;;-2.52;70.71
44751;BME280;30477;48.224;11.470;2023-01-30T01:23:54;96543.25;;;-2.60;70.95
44751;BME280;30477;48.224;11.470;2023-01-30T01:26:21;96543.88;;;-2.53;71.15
44751;BME280;30477;48.224;11.470;2023-01-30T01:28:47;96536.13;;;-2.49;71.35
44751;BME280;30477;48.224;11.470;2023-01-30T01:31:14;96537.03;;;-2.50;71.16
44751;BME280;30477;48.224;11.470;2023-01-30T01:33:39;96538.06;;;-2.57;71.07
44751;BME280;30477;48.224;11.470;2023-01-30T01:36:05;96535.66;;;-2.60;71.27
44751;BME280;30477;48.224;11.470;2023-01-30T01:38:31;96531.06;;;-2.49;71.10
44751;BME280;30477;48.224;11.470;2023-01-30T01:40:57;96526.81;;;-2.48;71.26
44751;BME280;30477;48.224;11.470;2023-01-30T01:43:27;96526.72;;;-2.45;71.46
44751;BME280;30477;48.224;11.470;2023-01-30T01:46:08;96514.00;;;-2.43;71.19
44751;BME280;30477;48.224;11.470;2023-01-30T01:48:57;96513.25;;;-2.46;71.03
44751;BME280;30477;48.224;11.470;2023-01-30T01:51:41;96504.66;;;-2.41;71.22
44751;BME280;30477;48.224;11.470;2023-01-30T01:54:13;96504.66;;;-2.41;71.11
44751;BME280;30477;48.224;11.470;2023-01-30T01:56:42;96504.59;;;-2.40;71.20
44751;BME280;30477;48.224;11.470;2023-01-30T01:59:25;96517.09;;;-2.35;71.08
44751;BME280;30477;48.224;11.470;2023-01-30T02:01:59;96521.91;;;-2.53;70.84
44751;BME280;30477;48.224;11.470;2023-01-30T02:04:26;96516.03;;;-2.55;71.05
44751;BME280;30477;48.224;11.470;2023-01-30T02:07:13;96523.41;;;-2.47;70.74
44751;BME280;30477;48.224;11.470;2023-01-30T02:09:41;96523.59;;;-2.53;71.13
44751;BME280;30477;48.224;11.470;2023-01-30T02:12:07;96533.78;;;-2.55;71.22
44751;BME280;30477;48.224;11.470;2023-01-30T02:14:35;96528.72;;;-2.55;71.11
44751;BME280;30477;48.224;11.470;2023-01-30T02:17:01;96532.03;;;-2.53;71.16
44751;BME280;30477;48.224;11.470;2023-01-30T02:19:47;96533.00;;;-2.57;71.16
44751;BME280;30477;48.224;11.470;2023-01-30T02:33:23;96527.06;;;-2.56;71.01
44751;BME280;30477;48.224;11.470;2023-01-30T02:38:33;96527.94;;;-2.57;70.96
44751;BME280;30477;48.224;11.470;2023-01-30T02:43:36;96521.41;;;-2.37;71.37
44751;BME280;30477;48.224;11.470;2023-01-30T02:48:51;96527.59;;;-2.46;70.92
44751;BME280;30477;48.224;11.470;2023-01-30T02:51:23;96525.13;;;-2.48;71.04
44751;BME280;30477;48.224;11.470;2023-01-30T02:53:52;96540.25;;;-2.46;71.11
44751;BME280;30477;48.224;11.470;2023-01-30T02:56:18;96527.91;;;-2.55;70.91
44751;BME280;30477;48.224;11.470;2023-01-30T02:58:48;96531.94;;;-2.50;71.07
44751;BME280;30477;48.224;11.470;2023-01-30T03:09:32;96538.84;;;-2.55;71.16
44751;BME280;30477;48.224;11.470;2023-01-30T03:12:17;96540.47;;;-2.52;71.29
44751;BME280;30477;48.224;11.470;2023-01-30T03:14:59;96534.38;;;-2.47;71.11
44751;BME280;30477;48.224;11.470;2023-01-30T03:17:25;96516.81;;;-2.53;71.07
44751;BME280;30477;48.224;11.470;2023-01-30T03:19:52;96500.03;;;-2.55;70.97
44751;BME280;30477;48.224;11.470;2023-01-30T03:22:20;96497.44;;;-2.54;71.25
44751;BME280;30477;48.224;11.470;2023-01-30T03:24:46;96503.69;;;-2.64;71.13
44751;BME280;30477;48.224;11.470;2023-01-30T03:27:11;96509.53;;;-2.62;71.29
44751;BME280;30477;48.224;11.470;2023-01-30T03:29:38;96522.28;;;-2.65;71.20
44751;BME280;30477;48.224;11.470;2023-01-30T03:32:04;96511.13;;;-2.59;71.27
44751;BME280;30477;48.224;11.470;2023-01-30T03:34:29;96499.00;;;-2.50;71.40
44751;BME280;30477;48.224;11.470;2023-01-30T03:36:55;96490.56;;;-2.50;71.40
44751;BME280;30477;48.224;11.470;2023-01-30T03:39:24;96491.41;;;-2.50;71.19
44751;BME280;30477;48.224;11.470;2023-01-30T03:41:51;96494.06;;;-2.54;71.02
44751;BME280;30477;48.224;11.470;2023-01-30T03:44:17;96489.84;;;-2.54;71.29
44751;BME280;30477;48.224;11.470;2023-01-30T03:46:42;96495.97;;;-2.61;71.31
44751;BME280;30477;48.224;11.470;2023-01-30T03:49:07;96492.63;;;-2.61;71.12
44751;BME280;30477;48.224;11.470;2023-01-30T03:51:33;96491.06;;;-2.66;71.44
44751;BME280;30477;48.224;11.470;2023-01-30T03:53:58;96490.03;;;-2.60;71.40
44751;BME280;30477;48.224;11.470;2023-01-30T03:56:23;96485.16;;;-2.66;71.16
44751;BME280;30477;48.224;11.470;2023-01-30T03:58:49;96481.94;;;-2.71;71.51
44751;BME280;30477;48.224;11.470;2023-01-30T04:01:14;96481.53;;;-2.59;71.44
44751;BME280;30477;48.224;11.470;2023-01-30T04:03:39;96501.00;;;-2.59;71.32
44751;BME280;30477;48.224;11.470;2023-01-30T04:06:05;96493.03;;;-2.75;71.43
44751;BME280;30477;48.224;11.470;2023-01-30T04:08:30;96499.63;;;-2.70;71.39
44751;BME280;30477;48.224;11.470;2023-01-30T04:10:55;96507.03;;;-2.63;71.66
44751;BME280;30477;48.224;11.470;2023-01-30T04:13:20;96512.63;;;-2.80;71.57
44751;BME280;30477;48.224;11.470;2023-01-30T04:15:46;96499.34;;;-2.87;71.82
44751;BME280;30477;48.224;11.470;2023-01-30T04:18:11;96493.91;;;-2.75;72.12
44751;BME280;30477;48.224;11.470;2023-01-30T04:20:36;96495.66;;;-2.77;72.10
44751;BME280;30477;48.224;11.470;2023-01-30T04:23:02;96492.38;;;-2.80;72.32
44751;BME280;30477;48.224;11.470;2023-01-30T04:25:28;96481.41;;;-2.81;72.62
44751;BME280;30477;48.224;11.470;2023-01-30T04:27:53;96488.09;;;-2.78;72.59
44751;BME280;30477;48.224;11.470;2023-01-30T04:30:18;96492.38;;;-2.80;72.76
44751;BME280;30477;48.224;11.470;2023-01-30T04:32:44;96488.22;;;-2.83;72.70
44751;BME280;30477;48.224;11.470;2023-01-30T04:35:09;96489.06;;;-2.82;73.13
44751;BME280;30477;48.224;11.470;2023-01-30T04:37:35;96473.47;;;-2.70;73.34
44751;BME280;30477;48.224;11.470;2023-01-30T04:40:00;96461.97;;;-2.54;73.41
44751;BME280;30477;48.224;11.470;2023-01-30T04:42:25;96445.31;;;-2.36;73.36
44751;BME280;30477;48.224;11.470;2023-01-30T04:44:51;96434.97;;;-2.30;72.98
44751;BME280;30477;48.224;11.470;2023-01-30T04:47:16;96425.97;;;-2.38;72.54
44751;BME280;30477;48.224;11.470;2023-01-30T04:49:42;96416.00;;;-2.43;72.83
44751;BME280;30477;48.224;11.470;2023-01-30T04:52:07;96447.03;;;-2.36;72.68
44751;BME280;30477;48.224;11.470;2023-01-30T04:54:33;96448.56;;;-2.32;72.70
44751;BME280;30477;48.224;11.470;2023-01-30T04:56:58;96454.06;;;-2.19;72.72
44751;BME280;30477;48.224;11.470;2023-01-30T04:59:23;96443.09;;;-2.20;72.30
44751;BME280;30477;48.224;11.470;2023-01-30T05:01:49;96446.41;;;-2.18;72.31
44751;BME280;30477;48.224;11.470;2023-01-30T05:04:14;96443.69;;;-2.13;72.07
44751;BME280;30477;48.224;11.470;2023-01-30T05:06:39;96424.66;;;-2.25;72.11
44751;BME280;30477;48.224;11.470;2023-01-30T05:09:05;96418.88;;;-2.29;72.09
44751;BME280;30477;48.224;11.470;2023-01-30T05:11:31;96423.78;;;-2.24;72.07
44751;BME280;30477;48.224;11.470;2023-01-30T05:13:57;96418.56;;;-2.19;72.04
44751;BME280;30477;48.224;11.470;2023-01-30T05:16:23;96421.28;;;-2.26;71.88
44751;BME280;30477;48.224;11.470;2023-01-30T05:18:49;96421.91;;;-2.19;71.97
44751;BME280;30477;48.224;11.470;2023-01-30T05:21:17;96425.56;;;-2.26;71.73
44751;BME280;30477;48.224;11.470;2023-01-30T05:23:43;96428.84;;;-2.24;71.93
44751;BME280;30477;48.224;11.470;2023-01-30T05:26:10;96429.72;;;-2.25;71.78
44751;BME280;30477;48.224;11.470;2023-01-30T05:28:36;96423.94;;;-2.29;71.84
44751;BME280;30477;48.224;11.470;2023-01-30T05:31:01;96424.56;;;-2.22;71.71
44751;BME280;30477;48.224;11.470;2023-01-30T05:33:27;96429.63;;;-2.22;71.63
44751;BME280;30477;48.224;11.470;2023-01-30T05:35:53;96435.47;;;-2.20;71.74
44751;BME280;30477;48.224;11.470;2023-01-30T05:38:18;96422.69;;;-2.17;71.44
44751;BME280;30477;48.224;11.470;2023-01-30T05:40:43;96421.03;;;-2.18;71.53
44751;BME280;30477;48.224;11.470;2023-01-30T05:43:09;96420.09;;;-2.15;71.51
44751;BME280;30477;48.224;11.470;2023-01-30T05:45:35;96420.91;;;-2.15;71.43
44751;BME280;30477;48.224;11.470;2023-01-30T05:48:01;96419.28;;;-2.16;71.24
44751;BME280;30477;48.224;11.470;2023-01-30T05:50:26;96407.69;;;-2.23;71.27
44751;BME280;30477;48.224;11.470;2023-01-30T05:52:51;96409.19;;;-2.17;71.42
44751;BME280;30477;48.224;11.470;2023-01-30T05:55:17;96404.72;;;-2.11;71.27
44751;BME280;30477;48.224;11.470;2023-01-30T05:57:42;96396.06;;;-2.05;71.36
44751;BME280;30477;48.224;11.470;2023-01-30T06:00:08;96413.88;;;-2.07;70.89
44751;BME280;30477;48.224;11.470;2023-01-30T06:02:35;96412.44;;;-2.14;70.93
44751;BME280;30477;48.224;11.470;2023-01-30T06:05:00;96412.28;;;-2.09;71.24
44751;BME280;30477;48.224;11.470;2023-01-30T06:07:25;96404.16;;;-1.95;71.20
44751;BME280;30477;48.224;11.470;2023-01-30T06:09:51;96395.56;;;-1.91;71.11
44751;BME280;30477;48.224;11.470;2023-01-30T06:12:16;96389.66;;;-1.92;71.08
44751;BME280;30477;48.224;11.470;2023-01-30T06:14:41;96391.25;;;-1.89;71.17
44751;BME280;30477;48.224;11.470;2023-01-30T06:17:07;96396.22;;;-1.86;71.07
44751;BME280;30477;48.224;11.470;2023-01-30T06:19:32;96410.69;;;-1.88;70.84
44751;BME280;30477;48.224;11.470;2023-01-30T06:21:58;96424.34;;;-1.92;71.20
44751;BME280;30477;48.224;11.470;2023-01-30T06:24:23;96413.88;;;-1.83;71.45
44751;BME280;30477;48.224;11.470;2023-01-30T06:26:49;96405.22;;;-1.77;71.16
44751;BME280;30477;48.224;11.470;2023-01-30T06:29:14;96410.25;;;-1.76;71.03
44751;BME280;30477;48.224;11.470;2023-01-30T06:31:39;96402.84;;;-1.82;71.00
44751;BME280;30477;48.224;11.470;2023-01-30T06:34:04;96412.88;;;-1.79;71.07
44751;BME280;30477;48.224;11.470;2023-01-30T06:36:30;96420.00;;;-1.89;70.86
44751;BME280;30477;48.224;11.470;2023-01-30T06:38:55;96406.69;;;-1.95;71.03
44751;BME280;30477;48.224;11.470;2023-01-30T06:41:21;96411.47;;;-1.86;71.28
44751;BME280;30477;48.224;11.470;2023-01-30T06:43:46;96421.47;;;-1.83;71.29
44751;BME280;30477;48.224;11.470;2023-01-30T06:46:12;96419.03;;;-1.85;71.14
44751;BME280;30477;48.224;11.470;2023-01-30T06:48:37;96424.00;;;-1.83;71.00
44751;BME280;30477;48.224;11.470;2023-01-30T06:51:02;96422.38;;;-1.84;71.36
44751;BME280;30477;48.224;11.470;2023-01-30T06:53:28;96427.22;;;-1.78;71.03
44751;BME280;30477;48.224;11.470;2023-01-30T06:55:57;96422.81;;;-1.73;71.09
44751;BME280;30477;48.224;11.470;2023-01-30T06:58:23;96426.00;;;-1.68;71.17
44751;BME280;30477;48.224;11.470;2023-01-30T07:00:48;96426.59;;;-1.61;71.14
44751;BME280;30477;48.224;11.470;2023-01-30T07:03:16;96428.31;;;-1.61;71.00
44751;BME280;30477;48.224;11.470;2023-01-30T07:05:43;96428.09;;;-1.55;70.99
44751;BME280;30477;48.224;11.470;2023-01-30T07:08:09;96423.53;;;-1.47;70.47
44751;BME280;30477;48.224;11.470;2023-01-30T07:10:35;96414.28;;;-1.48;70.41
44751;BME280;30477;48.224;11.470;2023-01-30T07:13:01;96426.75;;;-1.42;70.35
44751;BME280;30477;48.224;11.470;2023-01-30T07:15:28;96437.00;;;-1.45;70.13
44751;BME280;30477;48.224;11.470;2023-01-30T07:17:53;96433.59;;;-1.44;70.03
44751;BME280;30477;48.224;11.470;2023-01-30T07:20:19;96428.38;;;-1.41;70.03
44751;BME280;30477;48.224;11.470;2023-01-30T07:22:53;96424.06;;;-1.39;69.98
44751;BME280;30477;48.224;11.470;2023-01-30T07:25:21;96419.53;;;-1.31;69.84
44751;BME280;30477;48.224;11.470;2023-01-30T07:27:54;96420.34;;;-1.30;69.35
44751;BME280;30477;48.224;11.470;2023-01-30T07:30:20;96409.16;;;-1.25;69.21
44751;BME280;30477;48.224;11.470;2023-01-30T07:32:50;96408.03;;;-1.17;68.87
44751;BME280;30477;48.224;11.470;2023-01-30T07:35:16;96396.88;;;-1.13;68.90
44751;BME280;30477;48.224;11.470;2023-01-30T07:37:44;96393.31;;;-1.09;68.82
44751;BME280;30477;48.224;11.470;2023-01-30T07:40:10;96396.59;;;-1.07;68.46
44751;BME280;30477;48.224;11.470;2023-01-30T07:42:36;96384.56;;;-1.02;68.21
44751;BME280;30477;48.224;11.470;2023-01-30T07:45:01;96377.81;;;-1.03;68.08
44751;BME280;30477;48.224;11.470;2023-01-30T07:47:26;96374.09;;;-0.94;68.14
44751;BME280;30477;48.224;11.470;2023-01-30T07:49:52;96380.63;;;-0.89;67.72
44751;BME280;30477;48.224;11.470;2023-01-30T07:52:17;96368.78;;;-0.88;67.48
44751;BME280;30477;48.224;11.470;2023-01-30T07:54:42;96366.66;;;-0.78;67.37
44751;BME280;30477;48.224;11.470;2023-01-30T07:57:08;96354.63;;;-0.73;66.97
44751;BME280;30477;48.224;11.470;2023-01-30T07:59:33;96360.25;;;-0.67;67.01
44751;BME280;30477;48.224;11.470;2023-01-30T08:01:58;96360.81;;;-0.60;66.53
44751;BME280;30477;48.224;11.470;2023-01-30T08:04:24;96354.06;;;-0.61;66.15
44751;BME280;30477;48.224;11.470;2023-01-30T08:06:49;96354.78;;;-0.57;66.14
44751;BME280;30477;48.224;11.470;2023-01-30T08:09:14;96348.63;;;-0.52;65.65
44751;BME280;30477;48.224;11.470;2023-01-30T08:11:40;96352.63;;;-0.46;65.61
44751;BME280;30477;48.224;11.470;2023-01-30T08:14:05;96354.25;;;-0.45;65.34
44751;BME280;30477;48.224;11.470;2023-01-30T08:16:30;96357.72;;;-0.46;65.21
44751;BME280;30477;48.224;11.470;2023-01-30T08:18:56;96343.00;;;-0.39;64.99
44751;BME280;30477;48.224;11.470;2023-01-30T08:21:22;96344.78;;;-0.42;64.89
44751;BME280;30477;48.224;11.470;2023-01-30T08:23:47;96339.72;;;-0.42;64.78
44751;BME280;30477;48.224;11.470;2023-01-30T08:26:12;96333.88;;;-0.44;64.59
44751;BME280;30477;48.224;11.470;2023-01-30T08:28:38;96341.41;;;-0.42;64.55
44751;BME280;30477;48.224;11.470;2023-01-30T08:31:07;96332.94;;;-0.43;64.56
44751;BME280;30477;48.224;11.470;2023-01-30T08:33:33;96326.09;;;-0.41;64.50
44751;BME280;30477;48.224;11.470;2023-01-30T08:35:58;96313.88;;;-0.32;64.43
44751;BME280;30477;48.224;11.470;2023-01-30T08:38:23;96316.03;;;-0.23;64.05
44751;BME280;30477;48.224;11.470;2023-01-30T08:40:48;96317.38;;;-0.16;64.14
44751;BME280;30477;48.224;11.470;2023-01-30T08:43:14;96311.28;;;-0.12;64.13
44751;BME280;30477;48.224;11.470;2023-01-30T08:45:39;96319.38;;;-0.04;64.31
44751;BME280;30477;48.224;11.470;2023-01-30T08:48:05;96323.28;;;0.04;64.41
44751;BME280;30477;48.224;11.470;2023-01-30T08:50:31;96328.59;;;0.18;64.37
44751;BME280;30477;48.224;11.470;2023-01-30T08:53:02;96319.75;;;0.25;64.31
44751;BME280;30477;48.224;11.470;2023-01-30T08:55:27;96307.78;;;0.27;64.20
44751;BME280;30477;48.224;11.470;2023-01-30T08:57:55;96301.06;;;0.26;64.52
44751;BME280;30477;48.224;11.470;2023-01-30T09:00:20;96291.84;;;0.24;64.49
44751;BME280;30477;48.224;11.470;2023-01-30T09:02:46;96289.97;;;0.27;64.61
44751;BME280;30477;48.224;11.470;2023-01-30T09:05:11;96302.56;;;0.30;64.66
44751;BME280;30477;48.224;11.470;2023-01-30T09:07:36;96310.06;;;0.33;64.60
44751;BME280;30477;48.224;11.470;2023-01-30T09:10:02;96309.03;;;0.37;64.56
44751;BME280;30477;48.224;11.470;2023-01-30T09:12:28;96291.81;;;0.43;64.53
44751;BME280;30477;48.224;11.470;2023-01-30T09:14:53;96287.31;;;0.48;64.64
44751;BME280;30477;48.224;11.470;2023-01-30T09:17:20;96290.50;;;0.53;64.43
44751;BME280;30477;48.224;11.470;2023-01-30T09:19:45;96302.94;;;0.59;64.45
44751;BME280;30477;48.224;11.470;2023-01-30T09:22:10;96295.88;;;0.64;64.52
44751;BME280;30477;48.224;11.470;2023-01-30T09:24:36;96294.56;;;0.74;64.43
44751;BME280;30477;48.224;11.470;2023-01-30T09:27:01;96302.94;;;0.94;64.11
44751;BME280;30477;48.224;11.470;2023-01-30T09:29:27;96319.59;;;1.01;63.25
44751;BME280;30477;48.224;11.470;2023-01-30T09:31:53;96327.84;;;1.06;62.99
44751;BME280;30477;48.224;11.470;2023-01-30T09:34:23;96330.25;;;1.09;62.25
44751;BME280;30477;48.224;11.470;2023-01-30T09:36:52;96320.75;;;1.11;61.94
44751;BME280;30477;48.224;11.470;2023-01-30T09:39:18;96313.06;;;1.13;61.70
44751;BME280;30477;48.224;11.470;2023-01-30T09:50:15;96294.22;;;1.15;60.23
44751;BME280;30477;48.224;11.470;2023-01-30T09:52:56;96296.47;;;1.21;60.08
44751;BME280;30477;48.224;11.470;2023-01-30T09:55:29;96294.53;;;1.27;59.66
44751;BME280;30477;48.224;11.470;2023-01-30T09:57:58;96290.75;;;1.34;59.65
44751;BME280;30477;48.224;11.470;2023-01-30T10:00:37;96291.38;;;1.39;59.57
44751;BME280;30477;48.224;11.470;2023-01-30T10:05:53;96282.34;;;1.32;59.04
44751;BME280;30477;48.224;11.470;2023-01-30T10:11:11;96299.75;;;1.24;59.73
44751;BME280;30477;48.224;11.470;2023-01-30T10:14:40;96276.81;;;1.24;60.02
44751;BME280;30477;48.224;11.470;2023-01-30T10:19:30;96251.75;;;1.32;60.48
44751;BME280;30477;48.224;11.470;2023-01-30T10:22:28;96256.53;;;1.38;60.94
44751;BME280;30477;48.224;11.470;2023-01-30T10:25:17;96244.22;;;1.46;61.28
44751;BME280;30477;48.224;11.470;2023-01-30T10:27:50;96233.72;;;1.52;61.41
44751;BME280;30477;48.224;11.470;2023-01-30T10:30:18;96224.81;;;1.59;61.66
44751;BME280;30477;48.224;11.470;2023-01-30T10:33:00;96206.47;;;1.69;61.65
44751;BME280;30477;48.224;11.470;2023-01-30T10:35:31;96221.16;;;1.81;61.96
44751;BME280;30477;48.224;11.470;2023-01-30T10:40:56;96207.28;;;2.17;61.85
44751;BME280;30477;48.224;11.470;2023-01-30T10:43:28;96222.34;;;2.21;61.78
44751;BME280;30477;48.224;11.470;2023-01-30T10:54:19;96198.22;;;2.41;61.81
44751;BME280;30477;48.224;11.470;2023-01-30T10:59:36;96210.72;;;2.32;61.48
44751;BME280;30477;48.224;11.470;2023-01-30T11:04:47;96198.94;;;2.29;61.75
44751;BME280;30477;48.224;11.470;2023-01-30T11:07:15;96198.94;;;2.29;61.63
44751;BME280;30477;48.224;11.470;2023-01-30T11:09:45;96203.47;;;2.24;61.85
44751;BME280;30477;48.224;11.470;2023-01-30T11:12:11;96194.16;;;2.23;61.71
44751;BME280;30477;48.224;11.470;2023-01-30T11:14:50;96193.25;;;2.24;61.83
44751;BME280;30477;48.224;11.470;2023-01-30T11:17:20;96174.88;;;2.33;61.79
44751;BME280;30477;48.224;11.470;2023-01-30T11:19:56;96160.00;;;2.40;61.77
44751;BME280;30477;48.224;11.470;2023-01-30T11:22:24;96162.13;;;2.48;61.78
44751;BME280;30477;48.224;11.470;2023-01-30T11:25:05;96157.00;;;2.48;61.36
44751;BME280;30477;48.224;11.470;2023-01-30T11:27:35;96134.84;;;2.48;61.41
44751;BME280;30477;48.224;11.470;2023-01-30T11:30:15;96137.88;;;2.55;61.52
44751;BME280;30477;48.224;11.470;2023-01-30T11:32:46;96140.06;;;2.61;61.19
44751;BME280;30477;48.224;11.470;2023-01-30T11:35:26;96141.25;;;2.70;61.37
44751;BME280;30477;48.224;11.470;2023-01-30T11:38:09;96145.22;;;2.75;61.39
44751;BME280;30477;48.224;11.470;2023-01-30T11:40:37;96141.38;;;2.82;61.34
44751;BME280;30477;48.224;11.470;2023-01-30T11:43:05;96139.00;;;2.79;61.30
44751;BME280;30477;48.224;11.470;2023-01-30T11:45:36;96143.38;;;2.77;61.71
44751;BME280;30477;48.224;11.470;2023-01-30T11:48:19;96139.91;;;2.78;61.49
44751;BME280;30477;48.224;11.470;2023-01-30T11:50:47;96118.06;;;2.73;61.58
44751;BME280;30477;48.224;11.470;2023-01-30T11:55:46;96112.06;;;2.74;61.87
44751;BME280;30477;48.224;11.470;2023-01-30T11:58:12;96119.09;;;2.70;61.88
44751;BME280;30477;48.224;11.470;2023-01-30T12:00:41;96114.91;;;2.69;62.03
44751;BME280;30477;48.224;11.470;2023-01-30T12:03:16;96107.31;;;2.68;62.27
44751;BME280;30477;48.224;11.470;2023-01-30T12:05:45;96108.50;;;2.62;62.24
44751;BME280;30477;48.224;11.470;2023-01-30T12:10:47;96112.13;;;2.58;62.63
44751;BME280;30477;48.224;11.470;2023-01-30T12:13:33;96100.66;;;2.65;62.60
44751;BME280;30477;48.224;11.470;2023-01-30T12:22:02;96087.75;;;2.67;62.84
44751;BME280;30477;48.224;11.470;2023-01-30T12:24:38;96081.84;;;2.66;63.26
44751;BME280;30477;48.224;11.470;2023-01-30T12:27:12;96088.16;;;2.60;63.00
44751;BME280;30477;48.224;11.470;2023-01-30T12:30:00;96082.13;;;2.61;63.16
44751;BME280;30477;48.224;11.470;2023-01-30T12:32:29;96078.56;;;2.64;63.21
44751;BME280;30477;48.224;11.470;2023-01-30T12:34:55;96080.94;;;2.67;63.20
44751;BME280;30477;48.224;11.470;2023-01-30T12:37:27;96067.25;;;2.68;63.35
44751;BME280;30477;48.224;11.470;2023-01-30T12:43:22;96058.47;;;2.72;63.41
44751;BME280;30477;48.224;11.470;2023-01-30T12:46:01;96047.88;;;2.78;63.26
44751;BME280;30477;48.224;11.470;2023-01-30T13:07:46;96076.81;;;2.93;63.80
44751;BME280;30477;48.224;11.470;2023-01-30T13:10:37;96069.06;;;2.95;63.91
44751;BME280;30477;48.224;11.470;2023-01-30T13:13:18;96072.34;;;2.97;63.84
44751;BME280;30477;48.224;11.470;2023-01-30T13:16:05;96059.34;;;3.00;64.02
44751;BME280;30477;48.224;11.470;2023-01-30T13:18:40;96077.25;;;3.00;64.04
44751;BME280;30477;48.224;11.470;2023-01-30T13:21:16;96081.66;;;2.98;63.81
44751;BME280;30477;48.224;11.470;2023-01-30T13:23:58;96089.16;;;3.01;63.74
44751;BME280;30477;48.224;11.470;2023-01-30T13:26:30;96105.03;;;2.92;63.39
44751;BME280;30477;48.224;11.470;2023-01-30T13:29:28;96100.28;;;2.85;63.51
44751;BME280;30477;48.224;11.470;2023-01-30T13:31:58;96097.19;;;2.80;63.49
44751;BME280;30477;48.224;11.470;2023-01-30T13:34:31;96102.28;;;2.80;63.51
44751;BME280;30477;48.224;11.470;2023-01-30T13:37:01;96100.66;;;2.79;63.57
44751;BME280;30477;48.224;11.470;2023-01-30T13:39:53;96111.88;;;2.77;63.52
44751;BME280;30477;48.224;11.470;2023-01-30T13:42:40;96108.69;;;2.73;63.44
44751;BME280;30477;48.224;11.470;2023-01-30T13:45:15;96114.69;;;2.72;63.46
44751;BME280;30477;48.224;11.470;2023-01-30T13:48:07;96123.28;;;2.71;63.55
44751;BME280;30477;48.224;11.470;2023-01-30T13:55:59;96110.97;;;2.63;63.54
44751;BME280;30477;48.224;11.470;2023-01-30T14:01:19;96132.94;;;2.66;63.95
44751;BME280;30477;48.224;11.470;2023-01-30T14:03:45;96132.22;;;2.64;63.48
44751;BME280;30477;48.224;11.470;2023-01-30T14:06:34;96124.00;;;2.59;63.85
44751;BME280;30477;48.224;11.470;2023-01-30T14:09:04;96138.59;;;2.57;63.79
44751;BME280;30477;48.224;11.470;2023-01-30T14:11:47;96145.47;;;2.56;64.07
44751;BME280;30477;48.224;11.470;2023-01-30T14:14:26;96153.19;;;2.55;64.32
44751;BME280;30477;48.224;11.470;2023-01-30T14:16:57;96155.69;;;2.56;64.35
44751;BME280;30477;48.224;11.470;2023-01-30T14:19:40;96161.88;;;2.52;64.27
44751;BME280;30477;48.224;11.470;2023-01-30T14:22:32;96165.41;;;2.50;64.52
44751;BME280;30477;48.224;11.470;2023-01-30T14:27:47;96178.53;;;2.43;64.60
44751;BME280;30477;48.224;11.470;2023-01-30T14:32:56;96165.94;;;2.40;64.20
44751;BME280;30477;48.224;11.470;2023-01-30T14:35:29;96182.53;;;2.33;64.56
44751;BME280;30477;48.224;11.470;2023-01-30T14:38:16;96189.81;;;2.25;64.53
44751;BME280;30477;48.224;11.470;2023-01-30T14:40:47;96190.88;;;2.21;64.87
44751;BME280;30477;48.224;11.470;2023-01-30T14:45:57;96211.47;;;2.18;65.20
44751;BME280;30477;48.224;11.470;2023-01-30T14:51:35;96213.94;;;2.19;65.33
44751;BME280;30477;48.224;11.470;2023-01-30T15:13:17;96260.75;;;2.04;66.24
44751;BME280;30477;48.224;11.470;2023-01-30T15:32:16;96286.34;;;2.02;66.41